createdAt,value
2022-10-06T00:00:38.763Z,100201.84
2022-10-06T00:03:05.279Z,100192.69
2022-10-06T00:05:32.080Z,100201.94
2022-10-06T00:08:00.154Z,100210.50
2022-10-06T00:10:26.567Z,100210.03
2022-10-06T00:12:53.005Z,100228.41
2022-10-06T00:15:24.091Z,100228.53
2022-10-06T00:17:50.570Z,100231.88
2022-10-06T00:20:17.225Z,100228.25
2022-10-06T00:22:47.185Z,100229.06
2022-10-06T00:25:19.843Z,100233.81
2022-10-06T00:27:48.536Z,100233.97
2022-10-06T00:30:19.764Z,100240.81
2022-10-06T00:32:57.505Z,100239.84
2022-10-06T00:35:29.839Z,100247.94
2022-10-06T00:37:56.188Z,100246.13
2022-10-06T00:40:22.995Z,100254.22
2022-10-06T00:42:51.571Z,100261.25
2022-10-06T00:45:24.615Z,100278.19
2022-10-06T00:47:51.207Z,100286.44
2022-10-06T00:50:18.475Z,100289.09
2022-10-06T00:52:45.137Z,100299.75
2022-10-06T00:55:12.531Z,100312.75
2022-10-06T00:57:40.939Z,100335.03
2022-10-06T01:00:08.916Z,100318.34
2022-10-06T01:02:48.338Z,100345.16
2022-10-06T01:05:41.354Z,100354.03
2022-10-06T01:08:08.738Z,100349.00
2022-10-06T01:10:35.271Z,100349.81
2022-10-06T01:13:02.241Z,100357.94
2022-10-06T01:15:28.973Z,100357.22
2022-10-06T01:18:02.179Z,100364.34
2022-10-06T01:20:29.949Z,100365.47
2022-10-06T01:23:05.766Z,100369.81
2022-10-06T01:25:36.602Z,100380.59
2022-10-06T01:28:07.213Z,100383.34
2022-10-06T01:30:43.290Z,100382.38
2022-10-06T01:33:09.729Z,100392.31
2022-10-06T01:35:36.345Z,100395.94
2022-10-06T01:38:02.748Z,100382.19
2022-10-06T01:40:30.309Z,100393.09
2022-10-06T01:42:59.810Z,100405.41
2022-10-06T01:45:27.306Z,100410.16
2022-10-06T01:47:53.696Z,100418.25
2022-10-06T01:50:20.185Z,100422.16
2022-10-06T01:52:46.670Z,100410.06
2022-10-06T01:55:14.478Z,100421.91
2022-10-06T01:57:43.129Z,100435.22
2022-10-06T02:00:11.801Z,100440.53
2022-10-06T02:02:42.400Z,100424.63
2022-10-06T02:05:09.791Z,100442.97
2022-10-06T02:07:39.353Z,100450.00
2022-10-06T02:10:06.291Z,100438.78
2022-10-06T02:12:35.018Z,100440.31
2022-10-06T02:15:01.866Z,100449.50
2022-10-06T02:17:29.279Z,100438.53
2022-10-06T02:19:55.706Z,100443.97
2022-10-06T02:22:22.072Z,100449.66
2022-10-06T02:24:48.978Z,100443.97
2022-10-06T02:27:15.458Z,100454.38
2022-10-06T02:29:41.986Z,100452.69
2022-10-06T02:32:09.018Z,100451.09
2022-10-06T02:34:35.433Z,100450.25
2022-10-06T02:37:02.073Z,100443.97
2022-10-06T02:39:29.840Z,100444.69
2022-10-06T02:41:56.230Z,100461.88
2022-10-06T02:44:23.277Z,100461.88
2022-10-06T02:46:52.600Z,100467.41
2022-10-06T02:49:19.736Z,100469.34
2022-10-06T02:51:47.670Z,100473.69
2022-10-06T02:54:14.801Z,100481.81
2022-10-06T02:56:41.175Z,100490.63
2022-10-06T02:59:07.590Z,100486.41
2022-10-06T03:01:35.752Z,100483.88
2022-10-06T03:04:11.553Z,100495.34
2022-10-06T03:06:39.981Z,100498.72
2022-10-06T03:09:18.700Z,100496.19
2022-10-06T03:11:45.448Z,100503.69
2022-10-06T03:14:21.546Z,100508.03
2022-10-06T03:16:51.439Z,100507.06
2022-10-06T03:19:22.712Z,100510.31
2022-10-06T03:21:49.459Z,100497.13
2022-10-06T03:24:17.231Z,100509.97
2022-10-06T03:26:47.959Z,100517.81
2022-10-06T03:29:16.288Z,100533.88
2022-10-06T03:31:47.247Z,100534.84
2022-10-06T03:34:15.217Z,100529.66
2022-10-06T03:36:44.043Z,100529.28
2022-10-06T03:39:11.022Z,100529.28
2022-10-06T03:41:38.560Z,100541.13
2022-10-06T03:44:06.543Z,100535.81
2022-10-06T03:46:36.048Z,100538.09
2022-10-06T03:49:05.513Z,100549.88
2022-10-06T03:51:38.529Z,100553.53
2022-10-06T03:54:12.314Z,100562.22
2022-10-06T03:56:42.209Z,100558.97
2022-10-06T03:59:13.512Z,100566.19
2022-10-06T04:01:45.373Z,100578.75
2022-10-06T04:04:14.738Z,100580.19
2022-10-06T04:06:44.325Z,100595.53
2022-10-06T04:09:15.854Z,100587.63
2022-10-06T04:11:44.448Z,100598.53
2022-10-06T04:14:14.691Z,100609.16
2022-10-06T04:16:46.948Z,100626.34
2022-10-06T04:19:17.388Z,100617.69
2022-10-06T04:21:47.942Z,100616.47
2022-10-06T04:24:18.553Z,100631.56
2022-10-06T04:26:48.889Z,100637.97
2022-10-06T04:29:16.582Z,100641.41
2022-10-06T04:31:46.029Z,100650.22
2022-10-06T04:34:21.344Z,100656.22
2022-10-06T04:36:48.293Z,100647.84
2022-10-06T04:39:16.541Z,100660.97
2022-10-06T04:41:47.087Z,100669.28
2022-10-06T04:44:17.570Z,100670.09
2022-10-06T04:46:45.300Z,100674.38
2022-10-06T04:49:19.127Z,100690.84
2022-10-06T04:51:49.293Z,100684.91
2022-10-06T04:54:15.821Z,100686.19
2022-10-06T04:56:42.521Z,100693.31
2022-10-06T04:59:09.778Z,100708.38
2022-10-06T05:01:38.686Z,100697.41
2022-10-06T05:04:09.328Z,100706.13
2022-10-06T05:06:38.952Z,100713.34
2022-10-06T05:09:15.514Z,100720.59
2022-10-06T05:11:48.051Z,100726.19
2022-10-06T05:14:17.378Z,100729.91
2022-10-06T05:16:46.874Z,100728.88
2022-10-06T05:19:14.561Z,100732.91
2022-10-06T05:21:41.854Z,100739.16
2022-10-06T05:24:11.165Z,100735.75
2022-10-06T05:26:38.174Z,100735.25
2022-10-06T05:29:08.675Z,100743.28
2022-10-06T05:31:42.967Z,100747.75
2022-10-06T05:34:09.910Z,100750.06
2022-10-06T05:36:36.707Z,100744.78
2022-10-06T05:39:05.152Z,100758.31
2022-10-06T05:41:39.546Z,100764.38
2022-10-06T05:44:09.006Z,100764.38
2022-10-06T05:46:37.498Z,100768.69
2022-10-06T05:49:10.294Z,100764.03
2022-10-06T05:51:42.692Z,100775.69
2022-10-06T05:54:14.634Z,100784.81
2022-10-06T05:56:41.442Z,100792.06
2022-10-06T05:59:07.849Z,100804.28
2022-10-06T06:01:37.819Z,100801.28
2022-10-06T06:04:13.096Z,100807.13
2022-10-06T06:06:46.002Z,100813.81
2022-10-06T06:09:20.555Z,100813.94
2022-10-06T06:11:52.548Z,100820.56
2022-10-06T06:14:42.099Z,100828.22
2022-10-06T06:17:08.567Z,100826.06
2022-10-06T06:19:35.014Z,100831.53
2022-10-06T06:22:01.465Z,100842.78
2022-10-06T06:24:28.041Z,100852.19
2022-10-06T06:26:54.697Z,100848.06
2022-10-06T06:29:21.121Z,100853.00
2022-10-06T06:31:49.852Z,100863.97
2022-10-06T06:34:16.265Z,100870.41
2022-10-06T06:36:46.805Z,100885.25
2022-10-06T06:39:17.575Z,100883.56
2022-10-06T06:41:46.961Z,100874.31
2022-10-06T06:44:34.754Z,100885.72
2022-10-06T06:47:09.490Z,100889.22
2022-10-06T06:49:35.971Z,100892.25
2022-10-06T06:52:06.369Z,100897.47
2022-10-06T06:54:34.728Z,100893.78
2022-10-06T06:57:09.701Z,100906.31
2022-10-06T06:59:38.075Z,100905.56
2022-10-06T07:02:06.676Z,100911.63
2022-10-06T07:04:37.368Z,100915.25
2022-10-06T07:07:05.634Z,100917.59
2022-10-06T07:09:35.408Z,100923.38
2022-10-06T07:12:05.303Z,100910.13
2022-10-06T07:14:32.970Z,100909.94
2022-10-06T07:17:19.632Z,100922.78
2022-10-06T07:20:07.341Z,100928.75
2022-10-06T07:22:53.302Z,100928.31
2022-10-06T07:25:28.705Z,100932.59
2022-10-06T07:27:58.620Z,100941.28
2022-10-06T07:30:29.842Z,100940.22
2022-10-06T07:33:04.033Z,100946.91
2022-10-06T07:35:31.937Z,100942.16
2022-10-06T07:38:02.295Z,100956.72
2022-10-06T07:40:30.639Z,100949.63
2022-10-06T07:42:57.789Z,100956.59
2022-10-06T07:45:38.831Z,100960.22
2022-10-06T07:48:18.056Z,100968.63
2022-10-06T07:50:49.105Z,100967.56
2022-10-06T07:53:19.392Z,100979.75
2022-10-06T07:55:51.912Z,100978.81
2022-10-06T07:58:26.069Z,100982.72
2022-10-06T08:00:53.033Z,100984.22
2022-10-06T08:03:20.177Z,100985.31
2022-10-06T08:05:48.867Z,100978.94
2022-10-06T08:08:16.070Z,100987.22
2022-10-06T08:10:43.507Z,100994.03
2022-10-06T08:13:10.467Z,100985.94
2022-10-06T08:15:37.101Z,100997.00
2022-10-06T08:18:12.194Z,100996.59
2022-10-06T08:20:48.010Z,101007.84
2022-10-06T08:23:14.619Z,101003.28
2022-10-06T08:25:43.194Z,101004.75
2022-10-06T08:28:10.850Z,101003.56
2022-10-06T08:30:37.861Z,101000.72
2022-10-06T08:33:05.691Z,101018.66
2022-10-06T08:35:33.020Z,101023.59
2022-10-06T08:37:59.627Z,101029.41
2022-10-06T08:40:27.354Z,101032.72
2022-10-06T08:42:56.207Z,101035.66
2022-10-06T08:45:38.459Z,101037.03
2022-10-06T08:48:13.822Z,101043.09
2022-10-06T08:50:58.127Z,101050.13
2022-10-06T08:53:39.395Z,101047.34
2022-10-06T08:56:18.386Z,101055.72
2022-10-06T08:58:54.550Z,101056.25
2022-10-06T09:01:27.369Z,101052.41
2022-10-06T09:04:01.618Z,101055.38
2022-10-06T09:06:54.024Z,101059.91
2022-10-06T09:09:57.814Z,101070.94
2022-10-06T09:12:36.591Z,101064.56
2022-10-06T09:15:20.643Z,101064.97
2022-10-06T09:18:00.238Z,101063.31
2022-10-06T09:20:35.840Z,101063.84
2022-10-06T09:23:09.300Z,101062.88
2022-10-06T09:25:37.660Z,101080.69
2022-10-06T09:28:11.715Z,101085.69
2022-10-06T09:30:38.141Z,101072.16
2022-10-06T09:33:05.696Z,101078.72
2022-10-06T09:35:32.689Z,101082.75
2022-10-06T09:38:08.544Z,101085.91
2022-10-06T09:40:40.181Z,101083.88
2022-10-06T09:43:27.236Z,101083.56
2022-10-06T09:45:55.486Z,101083.56
2022-10-06T09:48:26.373Z,101086.69
2022-10-06T09:51:11.033Z,101100.03
2022-10-06T09:53:39.608Z,101097.31
2022-10-06T09:56:18.790Z,101099.16
2022-10-06T09:58:57.427Z,101084.38
2022-10-06T10:01:27.173Z,101088.88
2022-10-06T10:04:20.443Z,101084.63
2022-10-06T10:06:47.077Z,101090.19
2022-10-06T10:09:21.834Z,101092.66
2022-10-06T10:12:32.477Z,101089.84
2022-10-06T10:15:23.118Z,101097.94
2022-10-06T10:17:58.299Z,101086.78
2022-10-06T10:20:24.782Z,101091.69
2022-10-06T10:22:52.967Z,101085.72
2022-10-06T10:25:38.002Z,101087.28
2022-10-06T10:28:15.574Z,101102.00
2022-10-06T10:31:09.570Z,101098.56
2022-10-06T10:33:54.023Z,101095.91
2022-10-06T10:36:45.778Z,101092.69
2022-10-06T10:39:27.962Z,101093.84
2022-10-06T10:41:56.910Z,101091.25
2022-10-06T10:44:33.432Z,101091.00
2022-10-06T10:47:13.286Z,101092.19
2022-10-06T10:49:45.292Z,101094.97
2022-10-06T10:52:24.037Z,101088.09
2022-10-06T10:55:04.319Z,101081.81
2022-10-06T10:57:37.463Z,101081.31
2022-10-06T11:00:08.424Z,101082.44
2022-10-06T11:02:35.720Z,101075.84
2022-10-06T11:05:33.648Z,101080.97
2022-10-06T11:08:11.299Z,101080.41
2022-10-06T11:10:44.840Z,101080.91
2022-10-06T11:13:25.446Z,101064.16
2022-10-06T11:16:25.524Z,101076.44
2022-10-06T11:19:15.050Z,101073.31
2022-10-06T11:22:06.529Z,101077.41
2022-10-06T11:24:45.198Z,101065.31
2022-10-06T11:27:42.092Z,101076.19
2022-10-06T11:30:19.452Z,101077.00
2022-10-06T11:33:17.409Z,101077.97
2022-10-06T11:35:46.335Z,101080.41
2022-10-06T11:38:29.253Z,101074.47
2022-10-06T11:41:13.844Z,101072.06
2022-10-06T11:43:54.313Z,101070.25
2022-10-06T11:46:35.593Z,101069.25
2022-10-06T11:49:30.436Z,101071.94
2022-10-06T11:52:17.235Z,101058.38
2022-10-06T11:54:43.550Z,101070.81
2022-10-06T11:57:24.053Z,101059.97
2022-10-06T11:59:56.444Z,101054.28
2022-10-06T12:02:42.956Z,101049.78
2022-10-06T12:05:28.624Z,101055.41
2022-10-06T12:07:55.705Z,101050.19
2022-10-06T12:10:28.074Z,101052.47
2022-10-06T12:13:08.081Z,101046.84
2022-10-06T12:18:59.725Z,101042.72
2022-10-06T12:21:37.590Z,101040.34
2022-10-06T12:24:21.207Z,101050.47
2022-10-06T12:27:01.036Z,101033.44
2022-10-06T12:29:27.366Z,101036.94
2022-10-06T12:32:15.022Z,101038.09
2022-10-06T12:35:03.443Z,101030.75
2022-10-06T12:37:34.746Z,101034.28
2022-10-06T12:40:39.822Z,101023.72
2022-10-06T12:43:17.330Z,101026.97
2022-10-06T12:45:46.828Z,101027.53
2022-10-06T12:48:28.382Z,101021.44
2022-10-06T12:51:02.910Z,101024.59
2022-10-06T12:53:36.620Z,101026.63
2022-10-06T12:56:11.998Z,101019.03
2022-10-06T12:58:38.781Z,101012.53
2022-10-06T13:01:09.399Z,101013.06
2022-10-06T13:03:37.086Z,101022.78
2022-10-06T13:06:08.485Z,101017.44
2022-10-06T13:08:37.099Z,101022.25
2022-10-06T13:11:12.354Z,101014.91
2022-10-06T13:13:46.435Z,101007.97
2022-10-06T13:16:14.513Z,101015.25
2022-10-06T13:18:41.165Z,101006.56
2022-10-06T13:21:16.182Z,101015.84
2022-10-06T13:23:45.362Z,101010.56
2022-10-06T13:26:32.669Z,101001.06
2022-10-06T13:29:00.053Z,101005.22
2022-10-06T13:31:36.489Z,101014.50
2022-10-06T13:34:11.546Z,101000.09
2022-10-06T13:36:40.348Z,100997.81
2022-10-06T13:39:13.635Z,100996.59
2022-10-06T13:41:54.649Z,101006.09
2022-10-06T13:44:38.920Z,101001.03
2022-10-06T13:47:18.164Z,100998.47
2022-10-06T13:49:53.284Z,100998.47
2022-10-06T13:52:31.549Z,101007.09
2022-10-06T13:55:00.642Z,101000.16
2022-10-06T13:57:38.362Z,100999.56
2022-10-06T14:00:06.318Z,100999.56
2022-10-06T14:02:33.427Z,100999.13
2022-10-06T14:05:38.364Z,100999.81
2022-10-06T14:08:10.568Z,100996.81
2022-10-06T14:10:47.561Z,100997.31
2022-10-06T14:13:26.407Z,100988.97
2022-10-06T14:15:59.613Z,100996.25
2022-10-06T14:18:33.410Z,100987.75
2022-10-06T14:21:36.793Z,100989.56
2022-10-06T14:24:16.993Z,100986.06
2022-10-06T14:26:54.908Z,100987.13
2022-10-06T14:29:22.625Z,100989.94
2022-10-06T14:31:49.310Z,100985.09
2022-10-06T14:34:17.872Z,100981.59
2022-10-06T14:36:47.354Z,100981.72
2022-10-06T14:39:15.371Z,100989.97
2022-10-06T14:41:41.806Z,100978.56
2022-10-06T14:44:11.177Z,100977.25
2022-10-06T14:46:42.103Z,100975.69
2022-10-06T14:49:11.738Z,100973.38
2022-10-06T14:51:39.667Z,100967.44
2022-10-06T14:54:07.788Z,100969.72
2022-10-06T14:56:37.574Z,100965.38
2022-10-06T14:59:06.311Z,100972.28
2022-10-06T15:01:35.791Z,100974.00
2022-10-06T15:04:11.270Z,100970.59
2022-10-06T15:06:56.801Z,100971.31
2022-10-06T15:09:23.778Z,100966.34
2022-10-06T15:11:51.702Z,100967.19
2022-10-06T15:14:18.060Z,100967.44
2022-10-06T15:16:44.839Z,100965.97
2022-10-06T15:19:12.879Z,100958.25
2022-10-06T15:21:41.892Z,100961.75
2022-10-06T15:24:11.971Z,100952.44
2022-10-06T15:26:56.974Z,100956.06
2022-10-06T15:29:23.404Z,100952.06
2022-10-06T15:31:52.972Z,100962.34
2022-10-06T15:34:28.180Z,100957.16
2022-10-06T15:36:56.243Z,100945.28
2022-10-06T15:39:24.942Z,100943.47
2022-10-06T15:41:51.973Z,100952.44
2022-10-06T15:44:22.142Z,100951.47
2022-10-06T15:46:54.271Z,100957.03
2022-10-06T15:49:25.357Z,100948.56
2022-10-06T15:51:56.476Z,100950.50
2022-10-06T15:54:24.526Z,100952.53
2022-10-06T15:56:55.545Z,100950.97
2022-10-06T15:59:23.897Z,100944.81
2022-10-06T16:02:00.048Z,100945.78
2022-10-06T16:04:29.411Z,100953.88
2022-10-06T16:06:56.289Z,100953.88
2022-10-06T16:09:35.434Z,100952.44
2022-10-06T16:12:05.446Z,100954.09
2022-10-06T16:14:32.357Z,100952.19
2022-10-06T16:17:02.537Z,100950.47
2022-10-06T16:19:30.754Z,100946.47
2022-10-06T16:21:59.213Z,100951.44
2022-10-06T16:24:26.369Z,100955.78
2022-10-06T16:26:53.730Z,100948.97
2022-10-06T16:29:21.391Z,100959.13
2022-10-06T16:31:47.986Z,100954.41
2022-10-06T16:34:14.971Z,100952.09
2022-10-06T16:36:41.816Z,100957.25
2022-10-06T16:39:15.384Z,100961.09
2022-10-06T16:41:42.307Z,100955.91
2022-10-06T16:44:08.791Z,100957.09
2022-10-06T16:46:35.565Z,100956.72
2022-10-06T16:49:03.350Z,100952.47
2022-10-06T16:51:41.494Z,100960.69
2022-10-06T16:54:10.557Z,100967.09
2022-10-06T16:56:43.905Z,100964.03
2022-10-06T16:59:14.976Z,100959.28
2022-10-06T17:01:41.841Z,100964.81
2022-10-06T17:04:09.460Z,100959.84
2022-10-06T17:06:41.485Z,100961.97
2022-10-06T17:09:11.832Z,100961.72
2022-10-06T17:11:38.310Z,100966.28
2022-10-06T17:14:05.201Z,100967.50
2022-10-06T17:16:35.026Z,100965.47
2022-10-06T17:19:01.811Z,100966.78
2022-10-06T17:24:17.623Z,100972.44
2022-10-06T17:26:46.972Z,100966.28
2022-10-06T17:29:15.882Z,100970.97
2022-10-06T17:31:43.489Z,100967.47
2022-10-06T17:34:12.731Z,100969.66
2022-10-06T17:36:48.296Z,100967.78
2022-10-06T17:39:16.675Z,100974.25
2022-10-06T17:41:44.689Z,100974.13
2022-10-06T17:44:13.519Z,100978.63
2022-10-06T17:46:45.463Z,100987.53
2022-10-06T17:49:14.858Z,100980.84
2022-10-06T17:51:45.135Z,100974.25
2022-10-06T17:54:16.117Z,100990.63
2022-10-06T17:56:47.898Z,100993.91
2022-10-06T17:59:21.546Z,100985.72
2022-10-06T18:01:48.340Z,100990.50
2022-10-06T18:04:18.339Z,100986.22
2022-10-06T18:06:46.238Z,100994.59
2022-10-06T18:09:14.431Z,100993.47
2022-10-06T18:11:43.714Z,100989.44
2022-10-06T18:14:18.166Z,100989.53
2022-10-06T18:16:53.654Z,100979.25
2022-10-06T18:19:26.260Z,100989.31
2022-10-06T18:21:56.251Z,100983.13
2022-10-06T18:24:25.244Z,100979.44
2022-10-06T18:26:53.456Z,100989.50
2022-10-06T18:29:22.377Z,100986.09
2022-10-06T18:31:50.326Z,100989.47
2022-10-06T18:35:57.605Z,100979.47
2022-10-06T18:37:04.435Z,100983.53
2022-10-06T18:39:31.958Z,100971.06
2022-10-06T18:42:02.311Z,100986.00
2022-10-06T18:44:47.545Z,100990.69
2022-10-06T18:47:32.399Z,100989.84
2022-10-06T18:49:58.818Z,100979.56
2022-10-06T18:52:25.186Z,100981.16
2022-10-06T18:54:51.535Z,100987.09
2022-10-06T18:57:17.920Z,100977.63
2022-10-06T18:59:44.588Z,100977.16
2022-10-06T19:02:11.561Z,100974.13
2022-10-06T19:04:39.279Z,100992.00
2022-10-06T19:07:06.016Z,100988.41
2022-10-06T19:09:32.401Z,100992.31
2022-10-06T19:11:58.825Z,100994.78
2022-10-06T19:14:31.166Z,100995.28
2022-10-06T19:17:02.018Z,100989.41
2022-10-06T19:19:29.890Z,100999.34
2022-10-06T19:22:02.532Z,100994.66
2022-10-06T19:24:43.576Z,101002.41
2022-10-06T19:27:15.984Z,100998.81
2022-10-06T19:29:45.998Z,100994.75
2022-10-06T19:32:18.373Z,100999.78
2022-10-06T19:34:45.200Z,101003.66
2022-10-06T19:37:11.755Z,101002.06
2022-10-06T19:39:42.647Z,101005.38
2022-10-06T19:42:32.077Z,101010.22
2022-10-06T19:44:58.788Z,101004.25
2022-10-06T19:47:26.920Z,100999.78
2022-10-06T19:49:57.881Z,101009.44
2022-10-06T19:52:25.590Z,101002.28
2022-10-06T19:54:52.038Z,101008.81
2022-10-06T19:57:18.686Z,101002.09
2022-10-06T19:59:45.043Z,101006.72
2022-10-06T20:02:11.656Z,101002.28
2022-10-06T20:04:38.415Z,101005.09
2022-10-06T20:07:04.883Z,101015.50
2022-10-06T20:09:31.854Z,101006.25
2022-10-06T20:11:58.569Z,101016.09
2022-10-06T20:14:26.519Z,101011.34
2022-10-06T20:16:54.510Z,101014.38
2022-10-06T20:19:21.726Z,101013.44
2022-10-06T20:21:48.651Z,101019.00
2022-10-06T20:24:18.500Z,101022.09
2022-10-06T20:26:47.807Z,101030.50
2022-10-06T20:29:17.336Z,101022.75
2022-10-06T20:31:49.279Z,101025.06
2022-10-06T20:34:18.913Z,101021.75
2022-10-06T20:36:46.228Z,101019.31
2022-10-06T20:39:34.180Z,101021.81
2022-10-06T20:42:01.101Z,101021.75
2022-10-06T20:44:27.651Z,101027.34
2022-10-06T20:46:54.449Z,101013.81
2022-10-06T20:49:21.190Z,101020.13
2022-10-06T20:51:52.353Z,101020.44
2022-10-06T20:54:27.981Z,101021.81
2022-10-06T20:56:55.701Z,101014.66
2022-10-06T20:59:23.395Z,101015.59
2022-10-06T21:01:53.723Z,101009.69
2022-10-06T21:04:20.899Z,101001.50
2022-10-06T21:06:48.438Z,101000.50
2022-10-06T21:09:16.813Z,101008.44
2022-10-06T21:11:44.758Z,101005.25
2022-10-06T21:14:12.530Z,101005.09
2022-10-06T21:16:44.276Z,101003.22
2022-10-06T21:19:14.282Z,101002.13
2022-10-06T21:21:42.079Z,101001.72
2022-10-06T21:24:09.431Z,100995.22
2022-10-06T21:26:38.693Z,101002.16
2022-10-06T21:29:05.620Z,100999.06
2022-10-06T21:31:33.342Z,100996.31
2022-10-06T21:34:01.466Z,100998.91
2022-10-06T21:36:31.329Z,101002.22
2022-10-06T21:38:59.232Z,101004.69
2022-10-06T21:41:40.739Z,100991.47
2022-10-06T21:44:19.467Z,100989.69
2022-10-06T21:46:56.208Z,100987.50
2022-10-06T21:49:24.715Z,100990.81
2022-10-06T21:51:53.917Z,100978.13
2022-10-06T21:54:21.427Z,100988.44
2022-10-06T21:56:48.665Z,100987.31
2022-10-06T21:59:15.279Z,100997.88
2022-10-06T22:01:44.320Z,100987.31
2022-10-06T22:04:12.910Z,100986.66
2022-10-06T22:06:40.025Z,100984.63
2022-10-06T22:09:09.623Z,100979.81
2022-10-06T22:11:38.742Z,100981.53
2022-10-06T22:14:08.727Z,100971.13
2022-10-06T22:16:36.698Z,100977.44
2022-10-06T22:19:05.425Z,100967.03
2022-10-06T22:21:34.933Z,100971.13
2022-10-06T22:24:13.664Z,100967.03
2022-10-06T22:26:42.092Z,100973.44
2022-10-06T22:29:11.371Z,100975.06
2022-10-06T22:31:40.366Z,100976.09
2022-10-06T22:34:08.058Z,100971.81
2022-10-06T22:36:35.320Z,100967.97
2022-10-06T22:39:02.497Z,100965.34
2022-10-06T22:41:29.611Z,100959.22
2022-10-06T22:43:58.274Z,100967.03
2022-10-06T22:46:26.686Z,100958.50
2022-10-06T22:48:53.514Z,100962.69
2022-10-06T22:51:20.710Z,100957.31
2022-10-06T22:53:47.463Z,100964.25
2022-10-06T22:56:14.109Z,100959.03
2022-10-06T22:58:42.354Z,100960.22
2022-10-06T23:01:11.091Z,100954.59
2022-10-06T23:03:38.874Z,100947.09
2022-10-06T23:06:06.853Z,100953.56
2022-10-06T23:08:35.197Z,100945.69
2022-10-06T23:11:11.097Z,100950.13
2022-10-06T23:13:37.790Z,100946.63
2022-10-06T23:16:08.029Z,100944.75
2022-10-06T23:18:37.006Z,100946.09
2022-10-06T23:21:17.615Z,100941.84
2022-10-06T23:23:44.607Z,100940.50
2022-10-06T23:26:13.699Z,100943.13
2022-10-06T23:28:41.145Z,100939.44
2022-10-06T23:31:10.100Z,100931.28
2022-10-06T23:33:38.627Z,100931.41
2022-10-06T23:36:07.998Z,100934.38
2022-10-06T23:38:35.650Z,100924.84
2022-10-06T23:41:02.405Z,100927.06
2022-10-06T23:43:29.133Z,100920.19
2022-10-06T23:45:55.793Z,100921.72
2022-10-06T23:48:22.488Z,100925.91
2022-10-06T23:51:04.065Z,100920.78
2022-10-06T23:53:31.436Z,100924.00
2022-10-06T23:55:58.457Z,100922.03
2022-10-06T23:58:25.669Z,100918.09
